createdAt,value
2022-12-12T00:03:45.333Z,21.84
2022-12-12T00:08:51.391Z,22.46
2022-12-12T00:13:56.083Z,23.08
2022-12-12T00:19:01.832Z,22.80
2022-12-12T00:24:06.817Z,22.44
2022-12-12T00:29:12.778Z,21.88
2022-12-12T00:34:18.603Z,22.61
2022-12-12T00:39:25.095Z,22.91
2022-12-12T00:44:29.726Z,22.67
2022-12-12T00:49:35.566Z,21.72
2022-12-12T00:54:40.143Z,21.80
2022-12-12T00:59:44.777Z,21.93
2022-12-12T01:04:49.494Z,22.80
2022-12-12T01:09:55.102Z,22.34
2022-12-12T01:14:59.976Z,22.16
2022-12-12T01:20:05.375Z,22.05
2022-12-12T01:25:11.968Z,21.36
2022-12-12T01:30:19.842Z,22.81
2022-12-12T01:35:25.861Z,22.36
2022-12-12T01:40:33.815Z,21.64
2022-12-12T01:46:09.748Z,21.31
2022-12-12T01:51:16.587Z,21.89
2022-12-12T01:56:22.972Z,21.38
2022-12-12T02:01:28.074Z,20.97
2022-12-12T02:06:33.173Z,21.03
2022-12-12T02:11:45.680Z,21.36
2022-12-12T02:16:56.814Z,20.84
2022-12-12T02:22:28.031Z,20.64
2022-12-12T02:27:32.493Z,21.22
2022-12-12T02:33:19.144Z,21.99
2022-12-12T02:38:45.910Z,21.43
2022-12-12T02:44:27.168Z,22.25
2022-12-12T02:49:37.761Z,20.67
2022-12-12T02:54:42.866Z,21.82
2022-12-12T03:00:19.684Z,20.67
2022-12-12T03:06:18.039Z,21.28
2022-12-12T03:11:39.616Z,21.05
2022-12-12T03:16:57.182Z,20.53
2022-12-12T03:22:20.357Z,20.43
2022-12-12T03:27:49.310Z,20.53
2022-12-12T03:33:27.305Z,20.60
2022-12-12T03:38:39.725Z,20.04
2022-12-12T03:43:57.630Z,20.25
2022-12-12T03:49:06.079Z,20.27
2022-12-12T03:54:26.079Z,20.43
2022-12-12T03:59:43.455Z,20.00
2022-12-12T04:05:07.737Z,20.49
2022-12-12T04:10:30.838Z,20.65
2022-12-12T04:15:35.818Z,20.11
2022-12-12T04:21:03.086Z,19.92
2022-12-12T04:26:31.917Z,20.34
2022-12-12T04:31:48.345Z,19.90
2022-12-12T04:36:52.856Z,20.31
2022-12-12T04:42:02.337Z,20.03
2022-12-12T04:47:09.616Z,19.67
2022-12-12T04:52:16.192Z,20.11
2022-12-12T04:57:29.715Z,19.85
2022-12-12T05:02:46.730Z,19.89
2022-12-12T05:08:11.174Z,19.57
2022-12-12T05:13:21.492Z,20.01
2022-12-12T05:18:27.689Z,20.04
2022-12-12T05:23:34.835Z,20.03
2022-12-12T05:28:40.282Z,19.87
2022-12-12T05:33:46.406Z,19.61
2022-12-12T05:38:51.962Z,20.15
2022-12-12T05:43:56.918Z,20.13
2022-12-12T05:49:01.758Z,20.44
2022-12-12T05:54:07.083Z,20.56
2022-12-12T05:59:12.407Z,20.52
2022-12-12T06:04:17.767Z,20.28
2022-12-12T06:09:23.305Z,20.04
2022-12-12T06:14:28.371Z,20.09
2022-12-12T06:19:33.542Z,20.19
2022-12-12T06:24:38.614Z,20.37
2022-12-12T06:29:43.802Z,20.06
2022-12-12T06:34:49.033Z,19.99
2022-12-12T06:39:54.345Z,19.95
2022-12-12T06:44:59.595Z,20.35
2022-12-12T06:50:04.632Z,20.11
2022-12-12T06:55:10.552Z,21.07
2022-12-12T07:00:16.482Z,20.60
2022-12-12T07:05:22.096Z,20.37
2022-12-12T07:10:27.330Z,20.36
2022-12-12T07:15:32.865Z,20.88
2022-12-12T07:20:41.894Z,21.07
2022-12-12T07:25:47.459Z,20.30
2022-12-12T07:30:52.910Z,20.43
2022-12-12T07:36:01.771Z,20.10
2022-12-12T07:41:13.066Z,20.05
2022-12-12T07:46:24.584Z,19.90
2022-12-12T07:51:31.277Z,20.10
2022-12-12T07:56:36.426Z,19.95
2022-12-12T08:01:41.866Z,20.30
2022-12-12T08:06:47.210Z,20.41
2022-12-12T08:11:52.790Z,20.35
2022-12-12T08:16:58.029Z,19.99
2022-12-12T08:22:03.153Z,20.56
2022-12-12T08:27:13.734Z,20.40
2022-12-12T08:32:20.801Z,20.73
2022-12-12T08:37:26.281Z,20.69
2022-12-12T08:42:30.989Z,20.57
2022-12-12T08:47:35.925Z,20.68
2022-12-12T08:52:40.893Z,20.34
2022-12-12T08:57:45.880Z,21.20
2022-12-12T09:02:50.910Z,21.83
2022-12-12T09:07:56.491Z,20.58
2022-12-12T09:13:02.444Z,20.99
2022-12-12T09:18:08.023Z,20.61
2022-12-12T09:23:12.915Z,21.59
2022-12-12T09:28:19.892Z,21.68
2022-12-12T09:33:24.854Z,21.68
2022-12-12T09:38:30.133Z,21.47
2022-12-12T09:44:09.686Z,22.06
2022-12-12T09:49:37.182Z,22.05
2022-12-12T09:54:47.338Z,21.89
2022-12-12T10:00:08.255Z,22.08
2022-12-12T10:05:32.307Z,22.70
2022-12-12T10:10:45.916Z,22.98
2022-12-12T10:16:01.304Z,22.46
2022-12-12T10:21:07.303Z,23.24
2022-12-12T10:26:25.908Z,22.49
2022-12-12T10:31:57.909Z,22.37
2022-12-12T10:37:24.206Z,23.31
2022-12-12T10:43:06.559Z,22.47
2022-12-12T10:48:11.598Z,23.08
2022-12-12T10:53:16.508Z,22.87
2022-12-12T10:58:27.166Z,23.06
2022-12-12T11:03:42.252Z,23.74
2022-12-12T11:09:02.412Z,23.24
2022-12-12T11:14:25.829Z,24.15
2022-12-12T11:19:41.712Z,24.59
2022-12-12T11:24:49.232Z,24.38
2022-12-12T11:29:57.757Z,23.88
2022-12-12T11:35:06.660Z,23.94
2022-12-12T11:40:28.590Z,24.01
2022-12-12T11:45:33.476Z,24.12
2022-12-12T11:50:47.844Z,24.02
2022-12-12T11:55:58.923Z,24.25
2022-12-12T12:01:14.497Z,24.78
2022-12-12T12:06:54.137Z,24.51
2022-12-12T12:12:13.995Z,24.86
2022-12-12T12:17:32.633Z,25.34
2022-12-12T12:23:02.791Z,25.69
2022-12-12T12:28:13.736Z,26.29
2022-12-12T12:33:26.993Z,25.84
2022-12-12T12:38:51.891Z,26.25
2022-12-12T12:44:23.591Z,26.36
2022-12-12T12:49:35.702Z,26.92
2022-12-12T12:54:48.615Z,27.49
2022-12-12T13:00:01.470Z,27.30
2022-12-12T13:05:22.613Z,27.38
2022-12-12T13:10:33.398Z,27.32
2022-12-12T13:16:09.617Z,27.39
2022-12-12T13:21:24.666Z,27.75
2022-12-12T13:26:28.748Z,28.13
2022-12-12T13:31:32.962Z,28.35
2022-12-12T13:36:42.685Z,29.09
2022-12-12T13:42:12.346Z,28.77
2022-12-12T13:47:27.236Z,29.76
2022-12-12T13:52:44.901Z,29.52
2022-12-12T13:58:03.658Z,28.98
2022-12-12T14:03:14.447Z,29.17
2022-12-12T14:08:19.675Z,29.86
2022-12-12T14:13:24.527Z,30.72
2022-12-12T14:18:32.380Z,29.92
2022-12-12T14:23:51.052Z,30.04
2022-12-12T14:29:18.001Z,29.61
2022-12-12T14:34:51.012Z,28.14
2022-12-12T14:40:11.440Z,27.25
2022-12-12T14:45:51.011Z,26.79
2022-12-12T14:51:27.529Z,27.27
2022-12-12T14:56:53.623Z,26.73
2022-12-12T15:02:20.433Z,25.63
2022-12-12T15:07:30.084Z,25.79
2022-12-12T15:12:37.146Z,25.02
2022-12-12T15:17:51.937Z,25.20
2022-12-12T15:23:02.861Z,24.77
2022-12-12T15:28:08.032Z,24.71
2022-12-12T15:33:27.283Z,24.47
2022-12-12T15:38:32.559Z,24.33
2022-12-12T15:43:38.597Z,23.96
2022-12-12T15:48:53.818Z,23.82
2022-12-12T15:53:58.910Z,24.11
2022-12-12T15:59:06.608Z,24.60
2022-12-12T16:04:11.382Z,24.35
2022-12-12T16:09:27.893Z,24.35
2022-12-12T16:14:42.542Z,24.68
2022-12-12T16:19:58.812Z,24.36
2022-12-12T16:25:38.464Z,24.17
2022-12-12T16:30:45.337Z,24.27
2022-12-12T16:35:50.258Z,24.08
2022-12-12T16:40:58.249Z,23.81
2022-12-12T16:46:03.198Z,23.77
2022-12-12T16:51:10.591Z,23.37
2022-12-12T16:56:15.342Z,23.70
2022-12-12T17:01:22.682Z,23.03
2022-12-12T17:06:27.286Z,23.11
2022-12-12T17:11:31.967Z,22.83
2022-12-12T17:16:36.565Z,23.01
2022-12-12T17:21:41.253Z,22.66
2022-12-12T17:26:45.957Z,22.85
2022-12-12T17:31:51.685Z,23.33
2022-12-12T17:36:55.747Z,23.19
2022-12-12T17:42:00.467Z,21.99
2022-12-12T17:47:04.533Z,21.68
2022-12-12T17:52:09.147Z,21.87
2022-12-12T17:57:14.684Z,21.88
2022-12-12T18:02:19.316Z,21.90
2022-12-12T18:07:23.973Z,22.18
2022-12-12T18:12:29.655Z,21.48
2022-12-12T18:17:34.136Z,21.61
2022-12-12T18:22:38.679Z,20.76
2022-12-12T18:27:43.280Z,20.68
2022-12-12T18:32:47.846Z,20.70
2022-12-12T18:37:52.404Z,20.20
2022-12-12T18:42:57.344Z,20.12
2022-12-12T18:48:01.884Z,20.06
2022-12-12T18:53:06.527Z,19.88
2022-12-12T18:58:12.262Z,20.01
2022-12-12T19:03:16.860Z,19.82
2022-12-12T19:08:21.463Z,20.16
2022-12-12T19:13:27.209Z,20.63
2022-12-12T19:18:31.767Z,20.48
2022-12-12T19:23:37.596Z,20.90
2022-12-12T19:28:42.422Z,20.35
2022-12-12T19:33:49.085Z,20.94
2022-12-12T19:38:55.687Z,20.29
2022-12-12T19:44:06.032Z,20.29
2022-12-12T19:49:13.400Z,19.72
2022-12-12T19:54:22.047Z,19.47
2022-12-12T19:59:26.581Z,20.26
2022-12-12T20:04:31.366Z,20.27
2022-12-12T20:09:37.411Z,20.15
2022-12-12T20:14:42.124Z,19.47
2022-12-12T20:19:49.928Z,19.46
2022-12-12T20:24:54.564Z,20.26
2022-12-12T20:29:58.666Z,20.23
2022-12-12T20:35:02.704Z,19.96
2022-12-12T20:40:07.094Z,21.17
2022-12-12T20:45:12.341Z,20.89
2022-12-12T20:50:17.851Z,20.93
2022-12-12T20:55:22.419Z,21.01
2022-12-12T21:00:27.743Z,19.68
2022-12-12T21:05:32.441Z,19.68
2022-12-12T21:10:37.039Z,19.29
2022-12-12T21:15:41.704Z,18.72
2022-12-12T21:20:46.898Z,19.28
2022-12-12T21:25:51.459Z,17.93
2022-12-12T21:30:56.026Z,17.11
2022-12-12T21:36:09.467Z,17.71
2022-12-12T21:41:17.141Z,17.38
2022-12-12T21:46:25.115Z,17.56
2022-12-12T21:51:29.679Z,18.05
2022-12-12T21:56:34.817Z,17.88
2022-12-12T22:01:40.237Z,17.51
2022-12-12T22:06:48.597Z,18.25
2022-12-12T22:12:03.030Z,17.53
2022-12-12T22:17:08.849Z,17.87
2022-12-12T22:22:14.498Z,18.38
2022-12-12T22:27:19.101Z,18.00
2022-12-12T22:32:23.763Z,18.06
2022-12-12T22:37:28.354Z,17.88
2022-12-12T22:42:32.948Z,17.93
2022-12-12T22:47:38.585Z,18.72
2022-12-12T22:52:43.124Z,17.55
2022-12-12T22:57:49.536Z,18.29
2022-12-12T23:02:54.096Z,17.86
2022-12-12T23:07:58.871Z,17.63
2022-12-12T23:13:03.433Z,17.37
2022-12-12T23:18:07.969Z,17.74
2022-12-12T23:23:13.671Z,18.37
2022-12-12T23:28:17.674Z,17.40
2022-12-12T23:33:22.260Z,18.17
2022-12-12T23:38:26.922Z,18.03
2022-12-12T23:43:31.580Z,17.62
2022-12-12T23:48:36.700Z,17.33
2022-12-12T23:53:41.262Z,18.12
2022-12-12T23:58:46.015Z,17.42
